Norwegian Dream — C6LG5 — position and weather

sailwx.info

Track history (hours):
 
Tides and Currents Weather Stations Pressure Air Temp Water Temp Dewpoint Dewpoint Depression Visibility Wind Speed Wind Dir Waves Ship Positions

Norwegian Dream

Operator: Norwegian Cruise Line

Last reported at 2019-May-20 10:00 UTC. Time now 2019-May-20 17:19 UTC.
Position N 25°24' E 123°24'.

Type: Ship. MMSI: 308272000.

Wind from 360 at 35 knots

Barometer 1006.0 mb
Air temperature 25.0 ° C
Visibility: greater than 10.8 NM
Dewpoint 23.6 ° C
Water temperature 29.0 ° C

Date/timePositionNaut miles runAvg speedWind from/ knotsBaromVisibWave heightAir tempDewpointWater temp
2019-May-20 10:00N 25°24' E 123°24'7115.6 360 / 351006.010.8 25.023.629.0
2019-May-20 05:26N 25°24' E 122°06'1016.3
2019-May-20 04:51N 25°23' E 121°55'716.1
2019-May-20 04:25N 25°23' E 121°47'816.3
2019-May-20 03:55N 25°24' E 121°38'715.9
2019-May-20 03:30N 25°24' E 121°31'814.7
2019-May-20 02:59N 25°22' E 121°23'814.2
2019-May-20 02:27N 25°19' E 121°15'713.4
2019-May-20 01:57N 25°15' E 121°09'815.0
2019-May-20 01:25N 25°11' E 121°01'13518.2
2019-May-19 18:00N 24°12' E 118°48'1312.8 140 / 191007.0 24.0
2019-May-19 17:00N 24°13' E 118°34'816.4
2019-May-19 16:30N 24°16' E 118°25'815.8
2019-May-19 16:01N 24°18' E 118°18'714.5
2019-May-19 15:30N 24°21' E 118°10'613.0
2019-May-19 15:01N 24°25' E 118°05'4 8.1
2019-May-19 14:31N 24°29' E 118°04'0 0.2
2019-May-19 13:56N 24°29' E 118°04'0 0.0
2019-May-19 13:25N 24°29' E 118°04'0 0.0
2019-May-19 12:56N 24°29' E 118°04'0 0.0
2019-May-19 12:28N 24°29' E 118°04'0 0.0
2019-May-19 11:56N 24°29' E 118°04'0 0.0
2019-May-19 11:28N 24°29' E 118°04'0 0.0
2019-May-19 10:56N 24°29' E 118°04'0 0.0
2019-May-19 10:28N 24°29' E 118°04'0 0.3
2019-May-19 10:01N 24°29' E 118°04'4 7.7
2019-May-19 09:31N 24°25' E 118°04'612.2
2019-May-19 09:00N 24°21' E 118°09'612.9
2019-May-19 08:31N 24°18' E 118°16'714.2
2019-May-19 08:00N 24°18' E 118°23'815.0
2019-May-19 07:30N 24°17' E 118°32'14615.0
2019-May-18 21:47N 25°12' E 121°00'914.2
2019-May-18 21:08N 25°16' E 121°10'314.6
2019-May-18 20:57N 25°17' E 121°12'814.2
2019-May-18 20:25N 25°19' E 121°20'613.8
2019-May-18 19:59N 25°21' E 121°27'813.6
2019-May-18 19:23N 25°23' E 121°36'714.2
2019-May-18 18:55N 25°22' E 121°43'814.6
2019-May-18 18:24N 25°22' E 121°51'921.3
2019-May-18 18:00N 25°18' E 122°00'367.4 180 / 161007.0 5.4 25.023.629.0
2019-May-18 17:57N 25°21' E 121°58'1313.8
2019-May-18 17:01N 25°19' E 122°12'414.4
2019-May-18 16:43N 25°18' E 122°17'415.4
2019-May-18 16:28N 25°18' E 122°21'118 5.2
2019-May-17 18:00N 25°00' E 124°30'13512.5 180 / 141007.010.8 25.023.629.0
2019-May-17 07:09N 25°20' E 122°02'616.2
2019-May-17 06:48N 25°21' E 121°56'616.6
2019-May-17 06:28N 25°22' E 121°50'1116.5
2019-May-17 05:49N 25°23' E 121°38'1317.7
2019-May-17 05:06N 25°21' E 121°24'317.5
2019-May-17 04:55N 25°19' E 121°21'1017.8
2019-May-17 04:23N 25°15' E 121°11'817.9
2019-May-17 03:57N 25°13' E 121°04'15115.8
2019-May-16 18:25N 24°08' E 118°33'615.0
2019-May-16 18:00N 24°09' E 118°27'4307.8
2019-May-16 18:00N 24°06' E 118°24'714.3 200 / 191007.0 0.3 24.022.629.0
2019-May-16 17:30N 24°11' E 118°19'815.1
2019-May-16 17:00N 24°17' E 118°14'714.9
2019-May-16 16:30N 24°22' E 118°08'612.7
2019-May-16 16:00N 24°27' E 118°03'3 4.9
2019-May-16 15:26N 24°29' E 118°04'0 0.0
2019-May-16 14:56N 24°29' E 118°04'0 0.0
2019-May-16 14:25N 24°29' E 118°04'0 0.0
2019-May-16 13:59N 24°29' E 118°04'0 0.0
2019-May-16 13:26N 24°29' E 118°04'0 0.0
2019-May-16 12:56N 24°29' E 118°04'0 0.0
2019-May-16 12:26N 24°29' E 118°04'0 0.0
2019-May-16 11:56N 24°29' E 118°04'0 0.0
2019-May-16 11:25N 24°29' E 118°04'0 0.0
2019-May-16 10:53N 24°29' E 118°04'0 0.0
2019-May-16 10:26N 24°29' E 118°04'0 0.0
2019-May-16 09:59N 24°29' E 118°04'1 2.9
2019-May-16 09:30N 24°28' E 118°03'611.5
2019-May-16 09:00N 24°24' E 118°07'612.5
2019-May-16 08:30N 24°19' E 118°12'714.2
2019-May-16 08:00N 24°13' E 118°17'611.8
2019-May-16 07:30N 24°10' E 118°22'612.6
2019-May-16 07:00N 24°10' E 118°29'713.8
2019-May-16 06:28N 24°11' E 118°37'14415.2
2019-May-15 20:59N 25°11' E 121°01'1316.3
2019-May-15 20:10N 25°17' E 121°14'416.9
2019-May-15 19:56N 25°19' E 121°18'917.1
2019-May-15 19:25N 25°22' E 121°27'816.4
2019-May-15 18:55N 25°22' E 121°36'716.0
2019-May-15 18:31N 25°21' E 121°43'815.6
2019-May-15 18:00N 25°17' E 121°52'61181.8
2019-May-15 18:00N 25°12' E 121°54'511.1 280 / 61009.0 5.4 25.025.026.0
2019-May-15 17:30N 25°15' E 121°59'815.0
2019-May-15 16:58N 25°11' E 122°07'194 8.5
2019-May-14 18:00N 25°18' E 125°42'24 1.0 300 / 191010.010.8 25.025.026.0
2019-May-13 18:00N 25°42' E 125°42'19415.8 170 / 251009.010.8 25.025.025.0
2019-May-13 05:41N 25°25' E 122°08'1316.1
2019-May-13 04:52N 25°24' E 121°53'916.7
2019-May-13 04:21N 25°24' E 121°44'716.4
2019-May-13 03:56N 25°23' E 121°36'717.1
2019-May-13 03:30N 25°22' E 121°28'1017.7
2019-May-13 02:56N 25°20' E 121°17'918.3
2019-May-13 02:26N 25°16' E 121°08'818.8
2019-May-13 01:59N 25°13' E 120°59'11116.8
2019-May-12 19:24N 24°22' E 119°10'2819.9
2019-May-12 18:00N 24°12' E 118°42'4 8.0 360 / 211012.010.8 23.023.023.0
2019-May-12 17:28N 24°10' E 118°38'816.5
2019-May-12 16:59N 24°12' E 118°29'714.5
2019-May-12 16:30N 24°15' E 118°22'612.6
2019-May-12 16:00N 24°17' E 118°16'714.2
2019-May-12 15:30N 24°21' E 118°09'712.7
2019-May-12 14:58N 24°26' E 118°04'4 8.0
2019-May-12 14:30N 24°29' E 118°04'0 0.1
2019-May-12 13:55N 24°29' E 118°04'0 0.0
2019-May-12 13:25N 24°29' E 118°04'0 0.0
2019-May-12 12:49N 24°29' E 118°04'0 0.0
2019-May-12 12:25N 24°29' E 118°04'0 0.0
2019-May-12 11:55N 24°29' E 118°04'0 0.0
2019-May-12 11:25N 24°29' E 118°04'0 0.0
2019-May-12 10:55N 24°29' E 118°04'0 0.0
2019-May-12 10:25N 24°29' E 118°04'0 0.0
2019-May-12 09:49N 24°29' E 118°04'0 0.0
2019-May-12 09:19N 24°29' E 118°04'0 0.0
2019-May-12 08:49N 24°29' E 118°04'0 0.0
2019-May-12 08:25N 24°29' E 118°04'0 0.0
2019-May-12 07:55N 24°29' E 118°04'0 0.0
2019-May-12 07:25N 24°29' E 118°04'0 0.0
2019-May-12 06:43N 24°29' E 118°04'0 0.0
2019-May-12 06:22N 24°29' E 118°04'1 2.2
2019-May-12 06:01N 24°29' E 118°03'510.4
2019-May-12 05:31N 24°24' E 118°06'611.0
2019-May-12 05:00N 24°20' E 118°10'611.0
2019-May-12 04:30N 24°16' E 118°14'611.7
2019-May-12 04:00N 24°11' E 118°18'10610.6
2019-May-11 18:00N 22°48' E 119°30'917.6 360 / 161011.010.8 26.026.026.0
2019-May-11 17:30N 22°51' E 119°39'3010.8
2019-May-11 14:44N 22°39' E 120°08'311.4
2019-May-11 14:30N 22°39' E 120°11'5 9.5
2019-May-11 14:00N 22°37' E 120°16'1 2.3
2019-May-11 13:29N 22°37' E 120°17'0 0.0
2019-May-11 13:00N 22°37' E 120°17'0 0.0
2019-May-11 12:26N 22°37' E 120°17'0 0.0
2019-May-11 11:59N 22°37' E 120°17'0 0.0
2019-May-11 11:29N 22°37' E 120°17'0 0.0
2019-May-11 10:59N 22°37' E 120°17'0 0.0
2019-May-11 10:29N 22°37' E 120°17'0 0.0
2019-May-11 09:59N 22°37' E 120°17'0 0.0
2019-May-11 09:29N 22°37' E 120°17'0 0.0
2019-May-11 08:59N 22°37' E 120°17'0 0.0
2019-May-11 08:29N 22°37' E 120°17'0 0.0
2019-May-11 07:53N 22°37' E 120°17'0 0.0
2019-May-11 07:29N 22°37' E 120°17'0 0.0
2019-May-11 06:59N 22°37' E 120°17'0 0.0
2019-May-11 06:29N 22°37' E 120°17'0 0.0
2019-May-11 05:59N 22°37' E 120°17'0 0.0
2019-May-11 05:29N 22°37' E 120°17'0 0.0
2019-May-11 04:59N 22°37' E 120°17'0 0.0
2019-May-11 04:29N 22°37' E 120°17'0 0.0
2019-May-11 03:59N 22°37' E 120°17'0 0.0
2019-May-11 03:29N 22°37' E 120°17'0 0.0
2019-May-11 03:00N 22°37' E 120°17'0 0.0
2019-May-11 02:29N 22°37' E 120°17'0 0.0
2019-May-11 02:00N 22°37' E 120°17'0 0.1
2019-May-11 01:30N 22°37' E 120°17'3 6.8
2019-May-11 01:00N 22°37' E 120°13'4 8.2
2019-May-11 00:30N 22°38' E 120°09'4 8.2
2019-May-11 00:00N 22°40' E 120°05'4 7.9
2019-May-10 23:30N 22°42' E 120°01'3 6.5
2019-May-10 23:00N 22°44' E 119°59'3 6.4
2019-May-10 22:28N 22°46' E 119°56'8 4.5
2019-May-10 20:39N 22°53' E 119°51'11 4.1
2019-May-10 18:00N 23°00' E 119°42'   360 / 161011.010.8 25.025.025.0
Track history (hours):
 
Tides and Currents Weather Stations Pressure Air Temp Water Temp Dewpoint Dewpoint Depression Visibility Wind Speed Wind Dir Waves Ship Positions

Norwegian Dream

Operator: Norwegian Cruise Line

Last reported at 2019-May-20 10:00 UTC. Time now 2019-May-20 17:19 UTC.
Position N 25°24' E 123°24'.

Type: Ship. MMSI: 308272000.

Wind from 360 at 35 knots

Barometer 1006.0 mb
Air temperature 25.0 ° C
Visibility: greater than 10.8 NM
Dewpoint 23.6 ° C
Water temperature 29.0 ° C

Date/timePositionNaut miles runAvg speedWind from/ knotsBaromVisibWave heightAir tempDewpointWater temp
2019-May-20 10:00N 25°24' E 123°24'7115.6 360 / 351006.010.8 25.023.629.0
2019-May-20 05:26N 25°24' E 122°06'1016.3
2019-May-20 04:51N 25°23' E 121°55'716.1
2019-May-20 04:25N 25°23' E 121°47'816.3
2019-May-20 03:55N 25°24' E 121°38'715.9
2019-May-20 03:30N 25°24' E 121°31'814.7
2019-May-20 02:59N 25°22' E 121°23'814.2
2019-May-20 02:27N 25°19' E 121°15'713.4
2019-May-20 01:57N 25°15' E 121°09'815.0
2019-May-20 01:25N 25°11' E 121°01'13518.2
2019-May-19 18:00N 24°12' E 118°48'1312.8 140 / 191007.0 24.0
2019-May-19 17:00N 24°13' E 118°34'816.4
2019-May-19 16:30N 24°16' E 118°25'815.8
2019-May-19 16:01N 24°18' E 118°18'714.5
2019-May-19 15:30N 24°21' E 118°10'613.0
2019-May-19 15:01N 24°25' E 118°05'4 8.1
2019-May-19 14:31N 24°29' E 118°04'0 0.2
2019-May-19 13:56N 24°29' E 118°04'0 0.0
2019-May-19 13:25N 24°29' E 118°04'0 0.0
2019-May-19 12:56N 24°29' E 118°04'0 0.0
2019-May-19 12:28N 24°29' E 118°04'0 0.0
2019-May-19 11:56N 24°29' E 118°04'0 0.0
2019-May-19 11:28N 24°29' E 118°04'0 0.0
2019-May-19 10:56N 24°29' E 118°04'0 0.0
2019-May-19 10:28N 24°29' E 118°04'0 0.3
2019-May-19 10:01N 24°29' E 118°04'4 7.7
2019-May-19 09:31N 24°25' E 118°04'612.2
2019-May-19 09:00N 24°21' E 118°09'612.9
2019-May-19 08:31N 24°18' E 118°16'714.2
2019-May-19 08:00N 24°18' E 118°23'815.0
2019-May-19 07:30N 24°17' E 118°32'14615.0
2019-May-18 21:47N 25°12' E 121°00'914.2
2019-May-18 21:08N 25°16' E 121°10'314.6
2019-May-18 20:57N 25°17' E 121°12'814.2
2019-May-18 20:25N 25°19' E 121°20'613.8
2019-May-18 19:59N 25°21' E 121°27'813.6
2019-May-18 19:23N 25°23' E 121°36'714.2
2019-May-18 18:55N 25°22' E 121°43'814.6
2019-May-18 18:24N 25°22' E 121°51'921.3
2019-May-18 18:00N 25°18' E 122°00'367.4 180 / 161007.0 5.4 25.023.629.0
2019-May-18 17:57N 25°21' E 121°58'1313.8
2019-May-18 17:01N 25°19' E 122°12'414.4
2019-May-18 16:43N 25°18' E 122°17'415.4
2019-May-18 16:28N 25°18' E 122°21'118 5.2
2019-May-17 18:00N 25°00' E 124°30'13512.5 180 / 141007.010.8 25.023.629.0
2019-May-17 07:09N 25°20' E 122°02'616.2
2019-May-17 06:48N 25°21' E 121°56'616.6
2019-May-17 06:28N 25°22' E 121°50'1116.5
2019-May-17 05:49N 25°23' E 121°38'1317.7
2019-May-17 05:06N 25°21' E 121°24'317.5
2019-May-17 04:55N 25°19' E 121°21'1017.8
2019-May-17 04:23N 25°15' E 121°11'817.9
2019-May-17 03:57N 25°13' E 121°04'15115.8
2019-May-16 18:25N 24°08' E 118°33'615.0
2019-May-16 18:00N 24°09' E 118°27'4307.8
2019-May-16 18:00N 24°06' E 118°24'714.3 200 / 191007.0 0.3 24.022.629.0
2019-May-16 17:30N 24°11' E 118°19'815.1
2019-May-16 17:00N 24°17' E 118°14'714.9
2019-May-16 16:30N 24°22' E 118°08'612.7
2019-May-16 16:00N 24°27' E 118°03'3 4.9
2019-May-16 15:26N 24°29' E 118°04'0 0.0
2019-May-16 14:56N 24°29' E 118°04'0 0.0
2019-May-16 14:25N 24°29' E 118°04'0 0.0
2019-May-16 13:59N 24°29' E 118°04'0 0.0
2019-May-16 13:26N 24°29' E 118°04'0 0.0
2019-May-16 12:56N 24°29' E 118°04'0 0.0
2019-May-16 12:26N 24°29' E 118°04'0 0.0
2019-May-16 11:56N 24°29' E 118°04'0 0.0
2019-May-16 11:25N 24°29' E 118°04'0 0.0
2019-May-16 10:53N 24°29' E 118°04'0 0.0
2019-May-16 10:26N 24°29' E 118°04'0 0.0
2019-May-16 09:59N 24°29' E 118°04'1 2.9
2019-May-16 09:30N 24°28' E 118°03'611.5
2019-May-16 09:00N 24°24' E 118°07'612.5
2019-May-16 08:30N 24°19' E 118°12'714.2
2019-May-16 08:00N 24°13' E 118°17'611.8
2019-May-16 07:30N 24°10' E 118°22'612.6
2019-May-16 07:00N 24°10' E 118°29'713.8
2019-May-16 06:28N 24°11' E 118°37'14415.2
2019-May-15 20:59N 25°11' E 121°01'1316.3
2019-May-15 20:10N 25°17' E 121°14'416.9
2019-May-15 19:56N 25°19' E 121°18'917.1
2019-May-15 19:25N 25°22' E 121°27'816.4
2019-May-15 18:55N 25°22' E 121°36'716.0
2019-May-15 18:31N 25°21' E 121°43'815.6
2019-May-15 18:00N 25°17' E 121°52'61181.8
2019-May-15 18:00N 25°12' E 121°54'511.1 280 / 61009.0 5.4 25.025.026.0
2019-May-15 17:30N 25°15' E 121°59'815.0
2019-May-15 16:58N 25°11' E 122°07'194 8.5
2019-May-14 18:00N 25°18' E 125°42'24 1.0 300 / 191010.010.8 25.025.026.0
2019-May-13 18:00N 25°42' E 125°42'19415.8 170 / 251009.010.8 25.025.025.0
2019-May-13 05:41N 25°25' E 122°08'1316.1
2019-May-13 04:52N 25°24' E 121°53'916.7
2019-May-13 04:21N 25°24' E 121°44'716.4
2019-May-13 03:56N 25°23' E 121°36'717.1
2019-May-13 03:30N 25°22' E 121°28'1017.7
2019-May-13 02:56N 25°20' E 121°17'918.3
2019-May-13 02:26N 25°16' E 121°08'818.8
2019-May-13 01:59N 25°13' E 120°59'11116.8
2019-May-12 19:24N 24°22' E 119°10'2819.9
2019-May-12 18:00N 24°12' E 118°42'4 8.0 360 / 211012.010.8 23.023.023.0
2019-May-12 17:28N 24°10' E 118°38'816.5
2019-May-12 16:59N 24°12' E 118°29'714.5
2019-May-12 16:30N 24°15' E 118°22'612.6
2019-May-12 16:00N 24°17' E 118°16'714.2
2019-May-12 15:30N 24°21' E 118°09'712.7
2019-May-12 14:58N 24°26' E 118°04'4 8.0
2019-May-12 14:30N 24°29' E 118°04'0 0.1
2019-May-12 13:55N 24°29' E 118°04'0 0.0
2019-May-12 13:25N 24°29' E 118°04'0 0.0
2019-May-12 12:49N 24°29' E 118°04'0 0.0
2019-May-12 12:25N 24°29' E 118°04'0 0.0
2019-May-12 11:55N 24°29' E 118°04'0 0.0
2019-May-12 11:25N 24°29' E 118°04'0 0.0
2019-May-12 10:55N 24°29' E 118°04'0 0.0
2019-May-12 10:25N 24°29' E 118°04'0 0.0
2019-May-12 09:49N 24°29' E 118°04'0 0.0
2019-May-12 09:19N 24°29' E 118°04'0 0.0
2019-May-12 08:49N 24°29' E 118°04'0 0.0
2019-May-12 08:25N 24°29' E 118°04'0 0.0
2019-May-12 07:55N 24°29' E 118°04'0 0.0
2019-May-12 07:25N 24°29' E 118°04'0 0.0
2019-May-12 06:43N 24°29' E 118°04'0 0.0
2019-May-12 06:22N 24°29' E 118°04'1 2.2
2019-May-12 06:01N 24°29' E 118°03'510.4
2019-May-12 05:31N 24°24' E 118°06'611.0
2019-May-12 05:00N 24°20' E 118°10'611.0
2019-May-12 04:30N 24°16' E 118°14'611.7
2019-May-12 04:00N 24°11' E 118°18'10610.6
2019-May-11 18:00N 22°48' E 119°30'917.6 360 / 161011.010.8 26.026.026.0
2019-May-11 17:30N 22°51' E 119°39'3010.8
2019-May-11 14:44N 22°39' E 120°08'311.4
2019-May-11 14:30N 22°39' E 120°11'5 9.5
2019-May-11 14:00N 22°37' E 120°16'1 2.3
2019-May-11 13:29N 22°37' E 120°17'0 0.0
2019-May-11 13:00N 22°37' E 120°17'0 0.0
2019-May-11 12:26N 22°37' E 120°17'0 0.0
2019-May-11 11:59N 22°37' E 120°17'0 0.0
2019-May-11 11:29N 22°37' E 120°17'0 0.0
2019-May-11 10:59N 22°37' E 120°17'0 0.0
2019-May-11 10:29N 22°37' E 120°17'0 0.0
2019-May-11 09:59N 22°37' E 120°17'0 0.0
2019-May-11 09:29N 22°37' E 120°17'0 0.0
2019-May-11 08:59N 22°37' E 120°17'0 0.0
2019-May-11 08:29N 22°37' E 120°17'0 0.0
2019-May-11 07:53N 22°37' E 120°17'0 0.0
2019-May-11 07:29N 22°37' E 120°17'0 0.0
2019-May-11 06:59N 22°37' E 120°17'0 0.0
2019-May-11 06:29N 22°37' E 120°17'0 0.0
2019-May-11 05:59N 22°37' E 120°17'0 0.0
2019-May-11 05:29N 22°37' E 120°17'0 0.0
2019-May-11 04:59N 22°37' E 120°17'0 0.0
2019-May-11 04:29N 22°37' E 120°17'0 0.0
2019-May-11 03:59N 22°37' E 120°17'0 0.0
2019-May-11 03:29N 22°37' E 120°17'0 0.0
2019-May-11 03:00N 22°37' E 120°17'0 0.0
2019-May-11 02:29N 22°37' E 120°17'0 0.0
2019-May-11 02:00N 22°37' E 120°17'0 0.1
2019-May-11 01:30N 22°37' E 120°17'3 6.8
2019-May-11 01:00N 22°37' E 120°13'4 8.2
2019-May-11 00:30N 22°38' E 120°09'4 8.2
2019-May-11 00:00N 22°40' E 120°05'4 7.9
2019-May-10 23:30N 22°42' E 120°01'3 6.5
2019-May-10 23:00N 22°44' E 119°59'3 6.4
2019-May-10 22:28N 22°46' E 119°56'8 4.5
2019-May-10 20:39N 22°53' E 119°51'11 4.1
2019-May-10 18:00N 23°00' E 119°42'   360 / 161011.010.8 25.025.025.0

Dump ship's entire track history